createdAt,value
2022-12-08T00:00:13.562Z,60.07
2022-12-08T00:02:42.563Z,68.28
2022-12-08T00:05:28.489Z,65.03
2022-12-08T00:08:14.192Z,67.20
2022-12-08T00:10:49.281Z,61.20
2022-12-08T00:13:16.836Z,60.87
2022-12-08T00:15:43.616Z,59.00
2022-12-08T00:18:10.441Z,58.97
2022-12-08T00:20:37.300Z,61.10
2022-12-08T00:23:04.546Z,62.40
2022-12-08T00:25:32.108Z,56.80
2022-12-08T00:27:58.928Z,51.97
2022-12-08T00:30:25.775Z,53.97
2022-12-08T00:32:52.661Z,58.27
2022-12-08T00:35:19.581Z,61.63
2022-12-08T00:37:46.831Z,60.57
2022-12-08T03:58:55.131Z,38.97
2022-12-08T04:01:22.511Z,38.20
2022-12-08T04:03:49.911Z,39.50
2022-12-08T04:06:17.019Z,34.77
2022-12-08T04:08:44.204Z,37.17
2022-12-08T04:11:11.730Z,38.30
2022-12-08T04:13:40.101Z,43.07
2022-12-08T04:16:08.344Z,41.60
2022-12-08T04:18:36.080Z,36.73
2022-12-08T04:21:03.142Z,39.23
2022-12-08T07:08:33.678Z,64.03
2022-12-08T07:11:00.568Z,80.47
2022-12-08T07:13:27.398Z,85.07
2022-12-08T07:15:54.239Z,68.77
2022-12-08T07:18:21.714Z,55.80
2022-12-08T07:20:48.620Z,53.17
2022-12-08T07:23:15.596Z,42.53
2022-12-08T07:25:42.488Z,33.37
2022-12-08T07:28:11.866Z,33.00
2022-12-08T07:30:41.295Z,28.93
2022-12-08T07:33:08.205Z,28.77
2022-12-08T07:35:35.440Z,30.93
2022-12-08T07:38:02.683Z,23.93
2022-12-08T07:40:29.717Z,23.43
2022-12-08T07:42:56.669Z,21.67
2022-12-08T07:45:29.780Z,21.83
2022-12-08T07:47:58.273Z,23.17
2022-12-08T07:50:25.061Z,22.40
2022-12-08T07:52:51.854Z,20.07
2022-12-08T07:55:18.678Z,22.10
2022-12-08T07:57:45.566Z,22.33
2022-12-08T08:00:12.927Z,23.33
2022-12-08T08:02:40.342Z,22.92
2022-12-08T08:05:08.078Z,25.33
2022-12-08T08:07:35.207Z,23.10
2022-12-08T08:10:02.286Z,21.77
2022-12-08T08:12:32.091Z,24.13
2022-12-08T08:15:01.115Z,23.05
2022-12-08T08:17:29.829Z,26.73
2022-12-08T08:19:57.024Z,35.53
2022-12-08T08:22:25.360Z,33.67
2022-12-08T08:24:52.748Z,41.70
2022-12-08T08:27:20.126Z,39.63
2022-12-08T08:29:46.902Z,39.03
2022-12-08T08:32:16.876Z,35.07
2022-12-08T08:34:43.719Z,35.90
2022-12-08T08:37:10.578Z,34.13
2022-12-08T08:39:37.474Z,37.50
2022-12-08T08:42:04.537Z,35.07
2022-12-08T08:44:36.521Z,33.57
2022-12-08T08:47:05.912Z,36.47
2022-12-08T08:51:59.717Z,33.77
2022-12-08T08:54:29.964Z,34.63
2022-12-08T08:57:01.698Z,34.07
2022-12-08T08:59:31.598Z,35.93
2022-12-08T09:01:59.926Z,32.93
2022-12-08T09:04:29.213Z,32.90
2022-12-08T09:09:26.723Z,28.83
2022-12-08T09:11:55.824Z,30.13
2022-12-08T09:14:23.790Z,28.67
2022-12-08T09:16:53.149Z,22.73
2022-12-08T09:19:22.488Z,22.65
2022-12-08T09:21:49.376Z,21.38
2022-12-08T09:24:18.017Z,17.60
2022-12-08T09:26:45.670Z,18.73
2022-12-08T09:29:14.356Z,16.73
2022-12-08T09:31:42.183Z,18.65
2022-12-08T09:34:12.242Z,17.50
2022-12-08T09:36:40.411Z,16.65
2022-12-08T09:39:07.825Z,15.75
2022-12-08T09:41:54.362Z,16.13
2022-12-08T09:44:30.575Z,16.58
2022-12-08T09:47:00.813Z,19.95
2022-12-08T09:50:17.208Z,16.23
2022-12-08T09:53:00.010Z,14.45
2022-12-08T09:55:55.992Z,14.90
2022-12-08T09:58:41.619Z,21.15
2022-12-08T10:01:12.283Z,21.90
2022-12-08T10:03:41.639Z,15.15
2022-12-08T10:09:12.790Z,12.30
2022-12-08T10:11:56.177Z,11.98
2022-12-08T10:14:55.008Z,12.15
2022-12-08T10:17:26.810Z,10.18
2022-12-08T10:20:04.261Z,11.32
2022-12-08T10:22:37.704Z,10.65
2022-12-08T10:25:32.333Z,10.02
2022-12-08T10:27:59.415Z,11.63
2022-12-08T10:30:26.499Z,13.75
2022-12-08T10:32:55.202Z,12.60
2022-12-08T10:35:25.397Z,12.38
2022-12-08T10:37:56.773Z,12.77
2022-12-08T10:40:27.444Z,12.32
2022-12-08T10:42:57.570Z,13.32
2022-12-08T10:45:45.174Z,15.57
2022-12-08T10:48:29.537Z,15.55
2022-12-08T10:50:58.182Z,17.05
2022-12-08T10:53:44.677Z,17.67
2022-12-08T10:56:18.319Z,15.18
2022-12-08T10:58:47.562Z,15.50
2022-12-08T11:01:21.234Z,13.98
2022-12-08T11:03:51.359Z,13.68
2022-12-08T11:06:20.189Z,12.40
2022-12-08T11:08:54.133Z,13.27
2022-12-08T11:11:29.120Z,12.60
2022-12-08T11:13:56.662Z,13.18
2022-12-08T11:16:23.938Z,12.48
2022-12-08T11:18:58.456Z,13.25
2022-12-08T11:21:37.210Z,12.45
2022-12-08T11:24:22.829Z,12.95
2022-12-08T11:27:09.173Z,14.05
2022-12-08T11:29:36.293Z,13.13
2022-12-08T11:32:07.642Z,11.40
2022-12-08T11:34:52.136Z,9.88
2022-12-08T11:37:41.491Z,8.60
2022-12-08T11:40:17.946Z,10.10
2022-12-08T11:43:06.446Z,9.85
2022-12-08T11:45:36.516Z,10.02
2022-12-08T11:48:11.372Z,10.52
2022-12-08T11:50:59.771Z,9.82
2022-12-08T11:54:03.797Z,10.20
2022-12-08T11:56:47.243Z,10.00
2022-12-08T11:59:29.657Z,9.63
2022-12-08T12:02:01.944Z,10.70
2022-12-08T12:04:37.654Z,9.98
2022-12-08T12:07:33.529Z,11.00
2022-12-08T12:10:19.979Z,11.35
2022-12-08T12:13:15.781Z,9.02
2022-12-08T12:16:06.843Z,9.35
2022-12-08T12:18:50.913Z,9.82
2022-12-08T12:21:31.466Z,8.98
2022-12-08T12:24:07.165Z,10.88
2022-12-08T12:27:03.220Z,9.77
2022-12-08T12:29:34.049Z,9.30
2022-12-08T12:32:04.909Z,8.80
2022-12-08T12:34:35.144Z,9.55
2022-12-08T12:37:17.371Z,9.45
2022-12-08T12:39:53.635Z,9.35
2022-12-08T12:42:43.721Z,8.73
2022-12-08T12:45:32.114Z,9.80
2022-12-08T12:48:02.257Z,10.80
2022-12-08T12:50:35.213Z,10.32
2022-12-08T12:53:26.481Z,10.48
2022-12-08T12:55:57.703Z,10.93
2022-12-08T12:58:27.601Z,11.90
2022-12-08T13:01:17.149Z,11.68
2022-12-08T13:04:02.508Z,12.18
2022-12-08T13:06:52.491Z,12.23
2022-12-08T13:09:33.987Z,12.30
2022-12-08T13:12:10.241Z,12.13
2022-12-08T13:15:02.540Z,12.38
2022-12-08T13:17:33.990Z,11.88
2022-12-08T13:20:05.489Z,11.18
2022-12-08T13:23:10.979Z,11.48
2022-12-08T13:25:40.743Z,13.98
2022-12-08T13:28:34.015Z,14.20
2022-12-08T13:31:02.536Z,10.00
2022-12-08T13:33:41.303Z,8.90
2022-12-08T13:36:21.489Z,9.50
2022-12-08T13:38:54.271Z,9.30
2022-12-08T13:41:24.926Z,9.30
2022-12-08T13:45:03.603Z,9.32
2022-12-08T13:47:25.128Z,10.57
2022-12-08T13:50:55.732Z,9.82
2022-12-08T13:58:36.804Z,8.43
2022-12-08T14:01:25.563Z,9.50
2022-12-08T14:04:33.742Z,8.52
2022-12-08T14:06:48.914Z,8.50
2022-12-08T14:09:22.185Z,7.85
2022-12-08T14:11:58.559Z,9.82
2022-12-08T14:15:02.554Z,9.68
2022-12-08T14:17:30.446Z,10.73
2022-12-08T14:20:02.663Z,10.57
2022-12-08T14:22:35.096Z,11.65
2022-12-08T14:25:10.653Z,9.30
2022-12-08T14:27:38.181Z,10.52
2022-12-08T14:30:20.038Z,10.52
2022-12-08T14:32:53.147Z,11.73
2022-12-08T14:35:31.218Z,10.40
2022-12-08T14:38:04.084Z,11.77
2022-12-08T14:40:35.340Z,10.98
2022-12-08T14:43:08.338Z,12.65
2022-12-08T14:45:41.524Z,12.18
2022-12-08T14:48:38.618Z,15.18
2022-12-08T14:51:21.121Z,14.80
2022-12-08T14:54:00.145Z,14.27
2022-12-08T14:56:33.789Z,16.10
2022-12-08T14:59:06.735Z,19.63
2022-12-08T15:01:34.623Z,22.33
2022-12-08T15:04:08.651Z,16.08
2022-12-08T15:06:36.318Z,16.88
2022-12-08T15:09:17.997Z,16.13
2022-12-08T15:11:44.909Z,14.40
2022-12-08T15:14:30.697Z,15.63
2022-12-08T15:16:57.744Z,14.13
2022-12-08T15:19:34.071Z,15.25
2022-12-08T15:22:18.626Z,13.77
2022-12-08T15:24:45.564Z,15.38
2022-12-08T15:27:19.022Z,14.45
2022-12-08T15:29:47.342Z,13.88
2022-12-08T15:32:18.155Z,14.43
2022-12-08T15:34:45.214Z,16.05
2022-12-08T15:37:26.600Z,16.00
2022-12-08T15:39:54.000Z,16.35
2022-12-08T15:42:20.806Z,16.33
2022-12-08T15:44:47.669Z,15.93
2022-12-08T15:47:17.039Z,18.30
2022-12-08T15:49:44.324Z,16.88
2022-12-08T15:52:16.909Z,27.13
2022-12-08T15:54:44.053Z,27.90
2022-12-08T16:09:33.778Z,40.40
2022-12-08T16:12:19.491Z,42.45
2022-12-08T16:15:47.334Z,17.20
2022-12-08T16:17:35.427Z,24.40
2022-12-08T16:20:03.676Z,33.90
2022-12-08T16:25:21.779Z,19.02
2022-12-08T16:30:37.829Z,19.63
2022-12-08T16:33:05.484Z,21.08
2022-12-08T16:35:34.524Z,24.13
2022-12-08T16:38:02.574Z,26.15
2022-12-08T16:40:33.738Z,25.48
2022-12-08T16:43:00.785Z,30.48
2022-12-08T16:45:29.889Z,29.43
2022-12-08T16:48:01.259Z,28.77
2022-12-08T16:50:31.145Z,23.33
2022-12-08T16:53:02.253Z,22.50
2022-12-08T16:55:29.655Z,17.33
2022-12-08T16:57:57.887Z,19.77
2022-12-08T17:00:27.105Z,13.90
2022-12-08T17:02:55.975Z,14.95
2022-12-08T17:05:24.793Z,15.52
2022-12-08T17:07:59.847Z,13.88
2022-12-08T17:10:29.639Z,14.53
2022-12-08T17:12:56.839Z,13.93
2022-12-08T17:15:25.913Z,14.13
2022-12-08T17:17:53.993Z,13.82
2022-12-08T17:20:24.571Z,13.95
2022-12-08T17:22:59.044Z,14.60
2022-12-08T17:25:28.282Z,15.63
2022-12-08T17:27:56.588Z,13.23
2022-12-08T17:30:23.655Z,13.93
2022-12-08T17:32:52.904Z,14.40
2022-12-08T17:35:20.865Z,15.27
2022-12-08T17:37:48.008Z,15.33
2022-12-08T17:40:14.863Z,14.20
2022-12-08T17:42:42.520Z,17.67
2022-12-08T17:45:12.480Z,15.07
2022-12-08T17:47:39.554Z,14.60
2022-12-08T17:50:07.521Z,13.90
2022-12-08T17:52:34.759Z,15.43
2022-12-08T17:55:01.709Z,14.43
2022-12-08T17:57:29.302Z,13.73
2022-12-08T17:59:57.113Z,12.97
2022-12-08T18:02:26.474Z,12.77
2022-12-08T18:07:20.642Z,14.77
2022-12-08T18:09:47.728Z,14.67
2022-12-08T18:12:19.302Z,14.10
2022-12-08T18:14:50.628Z,14.37
2022-12-08T18:17:17.507Z,13.40
2022-12-08T18:19:44.389Z,13.53
2022-12-08T18:22:12.406Z,12.90
2022-12-08T18:24:39.300Z,14.43
2022-12-08T18:27:06.161Z,12.20
2022-12-08T18:29:33.335Z,12.60
2022-12-08T18:32:00.269Z,14.07
2022-12-08T18:34:27.579Z,14.83
2022-12-08T18:36:54.393Z,15.73
2022-12-08T18:39:30.400Z,29.80
2022-12-08T18:41:58.642Z,12.77
2022-12-08T18:44:25.499Z,13.93
2022-12-08T18:46:52.406Z,14.03
2022-12-08T18:49:22.982Z,14.20
2022-12-08T18:51:49.878Z,13.30
2022-12-08T18:54:16.780Z,13.13
2022-12-08T18:56:44.065Z,13.70
2022-12-08T18:59:12.552Z,12.77
2022-12-08T19:01:40.186Z,13.83
2022-12-08T19:04:28.056Z,15.87
2022-12-08T19:06:56.625Z,15.27
2022-12-08T19:09:24.643Z,14.50
2022-12-08T19:11:52.049Z,10.90
2022-12-08T19:14:25.759Z,12.40
2022-12-08T19:16:54.721Z,13.00
2022-12-08T19:19:22.288Z,11.97
2022-12-08T19:21:49.186Z,11.97
2022-12-08T19:24:16.175Z,13.37
2022-12-08T19:26:43.320Z,14.37
2022-12-08T19:29:11.777Z,13.23
2022-12-08T19:31:40.612Z,13.38
2022-12-08T19:34:09.517Z,11.63
2022-12-08T19:36:42.480Z,10.07
2022-12-08T19:39:35.325Z,12.33
2022-12-08T19:42:27.082Z,10.97
2022-12-08T19:44:54.208Z,10.87
2022-12-08T19:47:26.695Z,12.00
2022-12-08T19:50:15.227Z,10.80
2022-12-08T19:52:42.759Z,12.60
2022-12-08T19:55:12.693Z,11.53
2022-12-08T19:57:39.653Z,14.77
2022-12-08T20:00:08.651Z,15.27
2022-12-08T20:02:36.837Z,14.20
2022-12-08T20:05:05.942Z,15.00
2022-12-08T20:07:34.074Z,12.70
2022-12-08T20:10:04.953Z,13.83
2022-12-08T20:12:32.004Z,12.00
2022-12-08T20:14:58.829Z,12.80
2022-12-08T20:17:25.729Z,11.43
2022-12-08T20:19:52.678Z,13.13
2022-12-08T20:22:20.734Z,13.17
2022-12-08T20:24:58.260Z,11.97
2022-12-08T20:27:28.726Z,12.27
2022-12-08T20:29:56.553Z,13.57
2022-12-08T20:32:23.363Z,16.33
2022-12-08T20:34:50.287Z,17.50
2022-12-08T20:37:17.103Z,21.20
2022-12-08T20:39:44.078Z,22.37
2022-12-08T20:42:14.069Z,23.23
2022-12-08T20:44:44.618Z,18.87
2022-12-08T20:47:13.118Z,18.27
2022-12-08T20:49:40.100Z,17.30
2022-12-08T20:52:07.680Z,16.87
2022-12-08T20:54:35.436Z,16.27
2022-12-08T20:57:02.683Z,17.40
2022-12-08T20:59:29.660Z,17.10
2022-12-08T21:01:57.138Z,15.93
2022-12-08T21:04:24.596Z,14.20
2022-12-08T21:06:51.877Z,15.43
2022-12-08T21:09:19.176Z,14.83
2022-12-08T21:11:47.551Z,14.70
2022-12-08T21:14:14.622Z,15.70
2022-12-08T21:16:42.927Z,14.40
2022-12-08T21:19:11.632Z,17.93
2022-12-08T21:21:39.080Z,20.33
2022-12-08T21:24:06.564Z,16.13
2022-12-08T21:26:33.468Z,16.30
2022-12-08T21:29:00.396Z,17.40
2022-12-08T21:31:29.510Z,17.97
2022-12-08T21:33:57.733Z,15.75
2022-12-08T21:36:25.975Z,17.97
2022-12-08T21:38:54.897Z,17.57
2022-12-08T21:41:42.486Z,15.80
2022-12-08T21:44:11.934Z,14.67
2022-12-08T21:49:06.709Z,15.40
2022-12-08T21:51:37.883Z,13.40
2022-12-08T21:54:05.544Z,14.93
2022-12-08T21:56:32.637Z,14.20
2022-12-08T21:58:59.561Z,14.07
2022-12-08T22:01:26.590Z,16.13
2022-12-08T22:03:53.828Z,16.33
2022-12-08T22:06:23.535Z,13.30
2022-12-08T22:08:50.524Z,12.87
2022-12-08T22:11:18.332Z,14.03
2022-12-08T22:13:45.379Z,13.23
2022-12-08T22:16:15.060Z,13.90
2022-12-08T22:18:42.585Z,13.93
2022-12-08T22:21:17.234Z,14.37
2022-12-08T22:23:44.581Z,14.37
2022-12-08T22:26:12.212Z,14.07
2022-12-08T22:28:42.941Z,13.43
2022-12-08T22:31:12.686Z,13.57
2022-12-08T22:33:41.052Z,14.07
2022-12-08T22:36:13.691Z,12.97
2022-12-08T22:38:41.390Z,14.90
2022-12-08T22:41:08.500Z,23.73
2022-12-08T22:43:36.750Z,22.60
2022-12-08T22:46:14.593Z,22.83
2022-12-08T22:48:41.948Z,21.03
2022-12-08T22:51:09.599Z,20.57
2022-12-08T22:53:37.570Z,18.80
2022-12-08T22:56:10.007Z,16.57
2022-12-08T22:58:38.501Z,15.63
2022-12-08T23:01:06.083Z,17.10
2022-12-08T23:03:33.963Z,16.10
2022-12-08T23:06:02.266Z,17.40
2022-12-08T23:08:29.488Z,21.43
2022-12-08T23:10:56.481Z,18.73
2022-12-08T23:13:23.560Z,17.70
2022-12-08T23:15:50.474Z,18.83
2022-12-08T23:18:19.360Z,18.57
2022-12-08T23:20:47.891Z,19.23
2022-12-08T23:23:15.488Z,19.20
2022-12-08T23:25:44.015Z,20.93
2022-12-08T23:28:11.403Z,19.70
2022-12-08T23:30:43.164Z,18.87
2022-12-08T23:33:12.039Z,19.70
2022-12-08T23:35:39.042Z,14.63
2022-12-08T23:38:05.860Z,16.37
2022-12-08T23:40:32.854Z,16.63
2022-12-08T23:42:59.662Z,15.60
2022-12-08T23:45:26.501Z,16.53
2022-12-08T23:47:53.670Z,16.70
2022-12-08T23:50:20.596Z,15.70
2022-12-08T23:52:47.424Z,13.17
2022-12-08T23:55:14.222Z,15.47
2022-12-08T23:57:41.051Z,14.83
